sensor_id;sensor_type;location;lat;lon;timestamp;P1;durP1;ratioP1;P2;durP2;ratioP2
44456;SDS011;30159;49.316;8.558;2022-07-23T00:00:51;10.00;;;8.20;;
44456;SDS011;30159;49.316;8.558;2022-07-23T00:03:18;9.63;;;8.83;;
44456;SDS011;30159;49.316;8.558;2022-07-23T00:05:45;8.50;;;7.90;;
44456;SDS011;30159;49.316;8.558;2022-07-23T00:08:13;9.30;;;8.70;;
44456;SDS011;30159;49.316;8.558;2022-07-23T00:10:39;8.97;;;8.00;;
44456;SDS011;30159;49.316;8.558;2022-07-23T00:13:06;9.20;;;8.30;;
44456;SDS011;30159;49.316;8.558;2022-07-23T00:15:33;8.70;;;7.93;;
44456;SDS011;30159;49.316;8.558;2022-07-23T00:18:00;7.87;;;7.37;;
44456;SDS011;30159;49.316;8.558;2022-07-23T00:20:26;9.00;;;8.30;;
44456;SDS011;30159;49.316;8.558;2022-07-23T00:22:54;10.80;;;9.70;;
44456;SDS011;30159;49.316;8.558;2022-07-23T00:25:23;8.20;;;7.60;;
44456;SDS011;30159;49.316;8.558;2022-07-23T00:27:50;8.50;;;7.90;;
44456;SDS011;30159;49.316;8.558;2022-07-23T00:30:16;9.40;;;7.93;;
44456;SDS011;30159;49.316;8.558;2022-07-23T00:32:46;8.43;;;7.63;;
44456;SDS011;30159;49.316;8.558;2022-07-23T00:35:14;8.27;;;7.57;;
44456;SDS011;30159;49.316;8.558;2022-07-23T00:37:41;8.53;;;7.80;;
44456;SDS011;30159;49.316;8.558;2022-07-23T00:40:09;7.73;;;7.03;;
44456;SDS011;30159;49.316;8.558;2022-07-23T00:42:38;9.63;;;7.20;;
44456;SDS011;30159;49.316;8.558;2022-07-23T00:45:06;6.87;;;6.37;;
44456;SDS011;30159;49.316;8.558;2022-07-23T00:47:33;17.10;;;6.70;;
44456;SDS011;30159;49.316;8.558;2022-07-23T00:50:00;7.17;;;6.57;;
44456;SDS011;30159;49.316;8.558;2022-07-23T00:52:27;7.87;;;7.20;;
44456;SDS011;30159;49.316;8.558;2022-07-23T00:54:53;7.10;;;6.60;;
44456;SDS011;30159;49.316;8.558;2022-07-23T00:57:20;7.00;;;6.40;;
44456;SDS011;30159;49.316;8.558;2022-07-23T00:59:48;6.60;;;6.00;;
44456;SDS011;30159;49.316;8.558;2022-07-23T01:02:14;6.53;;;6.03;;
44456;SDS011;30159;49.316;8.558;2022-07-23T01:04:41;8.00;;;5.90;;
44456;SDS011;30159;49.316;8.558;2022-07-23T01:07:08;8.60;;;6.20;;
44456;SDS011;30159;49.316;8.558;2022-07-23T01:09:34;6.07;;;5.43;;
44456;SDS011;30159;49.316;8.558;2022-07-23T01:12:02;7.10;;;6.40;;
44456;SDS011;30159;49.316;8.558;2022-07-23T01:14:29;6.33;;;5.70;;
44456;SDS011;30159;49.316;8.558;2022-07-23T01:16:57;8.07;;;6.47;;
44456;SDS011;30159;49.316;8.558;2022-07-23T01:19:23;7.40;;;6.67;;
44456;SDS011;30159;49.316;8.558;2022-07-23T01:21:51;5.67;;;5.30;;
44456;SDS011;30159;49.316;8.558;2022-07-23T01:24:21;6.00;;;5.60;;
44456;SDS011;30159;49.316;8.558;2022-07-23T01:26:48;6.57;;;6.07;;
44456;SDS011;30159;49.316;8.558;2022-07-23T01:29:16;5.10;;;4.70;;
44456;SDS011;30159;49.316;8.558;2022-07-23T01:31:43;5.57;;;5.17;;
44456;SDS011;30159;49.316;8.558;2022-07-23T01:34:10;8.23;;;5.40;;
44456;SDS011;30159;49.316;8.558;2022-07-23T01:36:39;5.00;;;4.63;;
44456;SDS011;30159;49.316;8.558;2022-07-23T01:39:06;5.10;;;4.80;;
44456;SDS011;30159;49.316;8.558;2022-07-23T01:41:35;5.20;;;4.80;;
44456;SDS011;30159;49.316;8.558;2022-07-23T01:44:01;4.97;;;4.67;;
44456;SDS011;30159;49.316;8.558;2022-07-23T01:46:28;5.40;;;5.00;;
44456;SDS011;30159;49.316;8.558;2022-07-23T01:48:55;5.37;;;4.87;;
44456;SDS011;30159;49.316;8.558;2022-07-23T01:51:21;5.47;;;5.07;;
44456;SDS011;30159;49.316;8.558;2022-07-23T01:53:48;6.10;;;5.60;;
44456;SDS011;30159;49.316;8.558;2022-07-23T01:56:15;5.23;;;4.83;;
44456;SDS011;30159;49.316;8.558;2022-07-23T01:58:43;10.97;;;5.83;;
44456;SDS011;30159;49.316;8.558;2022-07-23T02:01:09;6.07;;;5.57;;
44456;SDS011;30159;49.316;8.558;2022-07-23T02:03:36;4.83;;;4.50;;
44456;SDS011;30159;49.316;8.558;2022-07-23T02:06:02;5.20;;;4.80;;
44456;SDS011;30159;49.316;8.558;2022-07-23T02:08:29;5.60;;;5.20;;
44456;SDS011;30159;49.316;8.558;2022-07-23T02:10:56;4.80;;;4.40;;
44456;SDS011;30159;49.316;8.558;2022-07-23T02:13:22;5.77;;;5.37;;
44456;SDS011;30159;49.316;8.558;2022-07-23T02:15:50;5.87;;;5.47;;
44456;SDS011;30159;49.316;8.558;2022-07-23T02:18:17;7.17;;;5.20;;
44456;SDS011;30159;49.316;8.558;2022-07-23T02:20:44;5.87;;;5.30;;
44456;SDS011;30159;49.316;8.558;2022-07-23T02:23:10;6.00;;;5.60;;
44456;SDS011;30159;49.316;8.558;2022-07-23T02:25:37;5.47;;;5.17;;
44456;SDS011;30159;49.316;8.558;2022-07-23T02:28:04;5.73;;;5.33;;
44456;SDS011;30159;49.316;8.558;2022-07-23T02:30:30;8.87;;;5.40;;
44456;SDS011;30159;49.316;8.558;2022-07-23T02:32:58;5.10;;;4.80;;
44456;SDS011;30159;49.316;8.558;2022-07-23T02:35:25;5.03;;;4.73;;
44456;SDS011;30159;49.316;8.558;2022-07-23T02:37:54;6.53;;;5.07;;
44456;SDS011;30159;49.316;8.558;2022-07-23T02:40:21;6.07;;;5.50;;
44456;SDS011;30159;49.316;8.558;2022-07-23T02:42:47;5.57;;;5.10;;
44456;SDS011;30159;49.316;8.558;2022-07-23T02:45:14;5.60;;;5.20;;
44456;SDS011;30159;49.316;8.558;2022-07-23T02:47:40;5.70;;;5.30;;
44456;SDS011;30159;49.316;8.558;2022-07-23T02:50:08;6.03;;;5.33;;
44456;SDS011;30159;49.316;8.558;2022-07-23T02:52:37;5.60;;;4.80;;
44456;SDS011;30159;49.316;8.558;2022-07-23T02:55:04;5.57;;;5.17;;
44456;SDS011;30159;49.316;8.558;2022-07-23T02:57:31;6.60;;;5.67;;
44456;SDS011;30159;49.316;8.558;2022-07-23T02:59:58;6.40;;;5.77;;
44456;SDS011;30159;49.316;8.558;2022-07-23T03:02:25;7.20;;;5.30;;
44456;SDS011;30159;49.316;8.558;2022-07-23T03:04:52;5.27;;;4.83;;
44456;SDS011;30159;49.316;8.558;2022-07-23T03:07:20;5.33;;;4.90;;
44456;SDS011;30159;49.316;8.558;2022-07-23T03:09:47;5.93;;;5.43;;
44456;SDS011;30159;49.316;8.558;2022-07-23T03:12:14;6.00;;;5.53;;
44456;SDS011;30159;49.316;8.558;2022-07-23T03:14:40;5.57;;;5.17;;
44456;SDS011;30159;49.316;8.558;2022-07-23T03:17:08;5.77;;;5.40;;
44456;SDS011;30159;49.316;8.558;2022-07-23T03:19:34;5.87;;;5.43;;
44456;SDS011;30159;49.316;8.558;2022-07-23T03:22:01;5.87;;;5.47;;
44456;SDS011;30159;49.316;8.558;2022-07-23T03:24:29;5.30;;;4.90;;
44456;SDS011;30159;49.316;8.558;2022-07-23T03:27:10;5.70;;;5.30;;
44456;SDS011;30159;49.316;8.558;2022-07-23T03:29:37;5.47;;;4.93;;
44456;SDS011;30159;49.316;8.558;2022-07-23T03:32:03;5.37;;;5.07;;
44456;SDS011;30159;49.316;8.558;2022-07-23T03:34:30;4.97;;;4.60;;
44456;SDS011;30159;49.316;8.558;2022-07-23T03:36:57;4.97;;;4.57;;
44456;SDS011;30159;49.316;8.558;2022-07-23T03:39:24;5.40;;;5.10;;
44456;SDS011;30159;49.316;8.558;2022-07-23T03:41:52;5.33;;;5.03;;
44456;SDS011;30159;49.316;8.558;2022-07-23T03:44:18;4.90;;;4.50;;
44456;SDS011;30159;49.316;8.558;2022-07-23T03:46:45;8.30;;;5.43;;
44456;SDS011;30159;49.316;8.558;2022-07-23T03:49:11;5.97;;;5.40;;
44456;SDS011;30159;49.316;8.558;2022-07-23T03:51:38;5.93;;;5.47;;
44456;SDS011;30159;49.316;8.558;2022-07-23T03:54:05;5.47;;;5.17;;
44456;SDS011;30159;49.316;8.558;2022-07-23T03:56:31;5.27;;;4.83;;
44456;SDS011;30159;49.316;8.558;2022-07-23T03:58:59;9.10;;;4.90;;
44456;SDS011;30159;49.316;8.558;2022-07-23T04:01:26;5.63;;;5.23;;
44456;SDS011;30159;49.316;8.558;2022-07-23T04:03:52;5.33;;;4.93;;
44456;SDS011;30159;49.316;8.558;2022-07-23T04:06:19;4.97;;;4.53;;
44456;SDS011;30159;49.316;8.558;2022-07-23T04:08:46;5.23;;;4.83;;
44456;SDS011;30159;49.316;8.558;2022-07-23T04:11:12;5.33;;;4.83;;
44456;SDS011;30159;49.316;8.558;2022-07-23T04:13:39;7.60;;;5.40;;
44456;SDS011;30159;49.316;8.558;2022-07-23T04:16:07;4.93;;;4.70;;
44456;SDS011;30159;49.316;8.558;2022-07-23T04:18:34;6.80;;;6.10;;
44456;SDS011;30159;49.316;8.558;2022-07-23T04:21:00;6.73;;;6.17;;
44456;SDS011;30159;49.316;8.558;2022-07-23T04:23:27;6.27;;;5.87;;
44456;SDS011;30159;49.316;8.558;2022-07-23T04:25:54;6.37;;;5.97;;
44456;SDS011;30159;49.316;8.558;2022-07-23T04:28:20;5.50;;;5.20;;
44456;SDS011;30159;49.316;8.558;2022-07-23T04:30:47;7.00;;;6.37;;
44456;SDS011;30159;49.316;8.558;2022-07-23T04:33:15;5.80;;;5.40;;
44456;SDS011;30159;49.316;8.558;2022-07-23T04:35:41;6.90;;;6.30;;
44456;SDS011;30159;49.316;8.558;2022-07-23T04:38:08;6.37;;;5.80;;
44456;SDS011;30159;49.316;8.558;2022-07-23T04:40:35;7.53;;;6.80;;
44456;SDS011;30159;49.316;8.558;2022-07-23T04:43:01;7.57;;;6.87;;
44456;SDS011;30159;49.316;8.558;2022-07-23T04:45:28;6.80;;;6.40;;
44456;SDS011;30159;49.316;8.558;2022-07-23T04:47:54;6.97;;;6.40;;
44456;SDS011;30159;49.316;8.558;2022-07-23T04:50:23;7.47;;;6.80;;
44456;SDS011;30159;49.316;8.558;2022-07-23T04:52:49;10.70;;;6.20;;
44456;SDS011;30159;49.316;8.558;2022-07-23T04:55:16;6.00;;;5.60;;
44456;SDS011;30159;49.316;8.558;2022-07-23T04:57:43;7.10;;;6.57;;
44456;SDS011;30159;49.316;8.558;2022-07-23T05:00:10;6.00;;;5.53;;
44456;SDS011;30159;49.316;8.558;2022-07-23T05:02:37;7.67;;;6.87;;
44456;SDS011;30159;49.316;8.558;2022-07-23T05:05:04;6.90;;;6.30;;
44456;SDS011;30159;49.316;8.558;2022-07-23T05:07:32;8.30;;;6.87;;
44456;SDS011;30159;49.316;8.558;2022-07-23T05:09:59;6.93;;;6.43;;
44456;SDS011;30159;49.316;8.558;2022-07-23T05:12:26;8.07;;;7.27;;
44456;SDS011;30159;49.316;8.558;2022-07-23T05:14:52;7.67;;;6.80;;
44456;SDS011;30159;49.316;8.558;2022-07-23T05:17:19;7.40;;;6.80;;
44456;SDS011;30159;49.316;8.558;2022-07-23T05:19:46;16.23;;;8.07;;
44456;SDS011;30159;49.316;8.558;2022-07-23T05:22:12;7.60;;;7.00;;
44456;SDS011;30159;49.316;8.558;2022-07-23T05:24:40;7.83;;;7.03;;
44456;SDS011;30159;49.316;8.558;2022-07-23T05:27:08;6.97;;;6.40;;
44456;SDS011;30159;49.316;8.558;2022-07-23T05:29:34;10.43;;;7.00;;
44456;SDS011;30159;49.316;8.558;2022-07-23T05:32:01;8.03;;;7.30;;
44456;SDS011;30159;49.316;8.558;2022-07-23T05:34:28;7.00;;;6.47;;
44456;SDS011;30159;49.316;8.558;2022-07-23T05:36:54;7.33;;;6.67;;
44456;SDS011;30159;49.316;8.558;2022-07-23T05:39:21;7.40;;;6.70;;
44456;SDS011;30159;49.316;8.558;2022-07-23T05:41:49;7.73;;;7.13;;
44456;SDS011;30159;49.316;8.558;2022-07-23T05:44:15;10.20;;;7.47;;
44456;SDS011;30159;49.316;8.558;2022-07-23T05:46:42;7.43;;;6.83;;
44456;SDS011;30159;49.316;8.558;2022-07-23T05:49:09;7.63;;;6.93;;
44456;SDS011;30159;49.316;8.558;2022-07-23T05:51:35;7.83;;;7.13;;
44456;SDS011;30159;49.316;8.558;2022-07-23T05:54:02;7.73;;;7.03;;
44456;SDS011;30159;49.316;8.558;2022-07-23T05:56:29;10.67;;;7.80;;
44456;SDS011;30159;49.316;8.558;2022-07-23T05:58:57;7.47;;;6.70;;
44456;SDS011;30159;49.316;8.558;2022-07-23T06:01:23;8.20;;;7.40;;
44456;SDS011;30159;49.316;8.558;2022-07-23T06:03:50;8.57;;;7.87;;
44456;SDS011;30159;49.316;8.558;2022-07-23T06:06:16;8.80;;;6.37;;
44456;SDS011;30159;49.316;8.558;2022-07-23T06:08:43;8.90;;;8.00;;
44456;SDS011;30159;49.316;8.558;2022-07-23T06:11:10;7.67;;;6.90;;
44456;SDS011;30159;49.316;8.558;2022-07-23T06:13:37;8.80;;;8.10;;
44456;SDS011;30159;49.316;8.558;2022-07-23T06:16:05;10.50;;;8.03;;
44456;SDS011;30159;49.316;8.558;2022-07-23T06:18:32;8.07;;;7.37;;
44456;SDS011;30159;49.316;8.558;2022-07-23T06:20:58;9.87;;;7.80;;
44456;SDS011;30159;49.316;8.558;2022-07-23T06:23:25;9.17;;;8.30;;
44456;SDS011;30159;49.316;8.558;2022-07-23T06:25:52;9.30;;;8.40;;
44456;SDS011;30159;49.316;8.558;2022-07-23T06:28:19;8.57;;;7.97;;
44456;SDS011;30159;49.316;8.558;2022-07-23T06:30:45;9.67;;;8.27;;
44456;SDS011;30159;49.316;8.558;2022-07-23T06:33:14;9.33;;;7.70;;
44456;SDS011;30159;49.316;8.558;2022-07-23T06:35:41;9.10;;;8.23;;
44456;SDS011;30159;49.316;8.558;2022-07-23T06:38:08;8.87;;;7.80;;
44456;SDS011;30159;49.316;8.558;2022-07-23T06:40:35;8.33;;;7.60;;
44456;SDS011;30159;49.316;8.558;2022-07-23T06:43:02;9.37;;;7.73;;
44456;SDS011;30159;49.316;8.558;2022-07-23T06:45:28;8.30;;;7.60;;
44456;SDS011;30159;49.316;8.558;2022-07-23T06:47:55;8.13;;;7.33;;
44456;SDS011;30159;49.316;8.558;2022-07-23T06:50:23;8.57;;;7.67;;
44456;SDS011;30159;49.316;8.558;2022-07-23T06:52:50;8.73;;;7.83;;
44456;SDS011;30159;49.316;8.558;2022-07-23T06:55:16;7.53;;;6.83;;
44456;SDS011;30159;49.316;8.558;2022-07-23T06:57:43;10.40;;;8.20;;
44456;SDS011;30159;49.316;8.558;2022-07-23T07:00:10;8.67;;;7.80;;
44456;SDS011;30159;49.316;8.558;2022-07-23T07:02:37;9.80;;;7.97;;
44456;SDS011;30159;49.316;8.558;2022-07-23T07:05:04;8.97;;;8.07;;
44456;SDS011;30159;49.316;8.558;2022-07-23T07:07:33;9.27;;;8.40;;
44456;SDS011;30159;49.316;8.558;2022-07-23T07:10:00;8.57;;;7.67;;
44456;SDS011;30159;49.316;8.558;2022-07-23T07:12:26;8.83;;;8.13;;
44456;SDS011;30159;49.316;8.558;2022-07-23T07:14:53;9.73;;;8.87;;
44456;SDS011;30159;49.316;8.558;2022-07-23T07:17:19;8.10;;;7.40;;
44456;SDS011;30159;49.316;8.558;2022-07-23T07:19:46;10.23;;;8.53;;
44456;SDS011;30159;49.316;8.558;2022-07-23T07:22:13;10.00;;;9.00;;
44456;SDS011;30159;49.316;8.558;2022-07-23T07:24:41;12.77;;;9.33;;
44456;SDS011;30159;49.316;8.558;2022-07-23T07:27:07;10.20;;;9.30;;
44456;SDS011;30159;49.316;8.558;2022-07-23T07:29:34;10.27;;;9.10;;
44456;SDS011;30159;49.316;8.558;2022-07-23T07:32:01;9.27;;;8.37;;
44456;SDS011;30159;49.316;8.558;2022-07-23T07:34:27;10.00;;;9.07;;
44456;SDS011;30159;49.316;8.558;2022-07-23T07:36:54;10.23;;;9.23;;
44456;SDS011;30159;49.316;8.558;2022-07-23T07:39:20;9.93;;;9.13;;
44456;SDS011;30159;49.316;8.558;2022-07-23T07:41:48;9.83;;;8.77;;
44456;SDS011;30159;49.316;8.558;2022-07-23T07:44:15;10.00;;;9.00;;
44456;SDS011;30159;49.316;8.558;2022-07-23T07:46:42;8.07;;;7.43;;
44456;SDS011;30159;49.316;8.558;2022-07-23T07:49:08;9.40;;;8.50;;
44456;SDS011;30159;49.316;8.558;2022-07-23T07:51:35;9.67;;;8.90;;
44456;SDS011;30159;49.316;8.558;2022-07-23T07:54:02;8.40;;;7.80;;
44456;SDS011;30159;49.316;8.558;2022-07-23T07:56:28;9.33;;;8.40;;
44456;SDS011;30159;49.316;8.558;2022-07-23T07:58:56;9.37;;;8.53;;
44456;SDS011;30159;49.316;8.558;2022-07-23T08:01:23;9.30;;;8.40;;
44456;SDS011;30159;49.316;8.558;2022-07-23T08:03:50;10.60;;;9.60;;
44456;SDS011;30159;49.316;8.558;2022-07-23T08:06:16;10.37;;;9.37;;
44456;SDS011;30159;49.316;8.558;2022-07-23T08:08:43;10.67;;;9.60;;
44456;SDS011;30159;49.316;8.558;2022-07-23T08:11:10;9.80;;;8.90;;
44456;SDS011;30159;49.316;8.558;2022-07-23T08:13:36;10.10;;;9.20;;
44456;SDS011;30159;49.316;8.558;2022-07-23T08:16:04;9.87;;;8.87;;
44456;SDS011;30159;49.316;8.558;2022-07-23T08:18:31;12.97;;;10.40;;
44456;SDS011;30159;49.316;8.558;2022-07-23T08:20:58;9.87;;;8.97;;
44456;SDS011;30159;49.316;8.558;2022-07-23T08:23:24;10.20;;;8.70;;
44456;SDS011;30159;49.316;8.558;2022-07-23T08:25:52;10.40;;;9.40;;
44456;SDS011;30159;49.316;8.558;2022-07-23T08:28:19;13.50;;;9.43;;
44456;SDS011;30159;49.316;8.558;2022-07-23T08:30:45;9.77;;;8.77;;
44456;SDS011;30159;49.316;8.558;2022-07-23T08:33:14;8.97;;;8.37;;
44456;SDS011;30159;49.316;8.558;2022-07-23T08:35:44;9.67;;;8.87;;
44456;SDS011;30159;49.316;8.558;2022-07-23T08:38:12;9.50;;;8.73;;
44456;SDS011;30159;49.316;8.558;2022-07-23T08:40:40;9.03;;;8.23;;
44456;SDS011;30159;49.316;8.558;2022-07-23T08:43:09;8.43;;;7.73;;
44456;SDS011;30159;49.316;8.558;2022-07-23T08:45:38;8.97;;;8.13;;
44456;SDS011;30159;49.316;8.558;2022-07-23T08:48:07;8.40;;;7.80;;
44456;SDS011;30159;49.316;8.558;2022-07-23T08:50:38;9.83;;;8.70;;
44456;SDS011;30159;49.316;8.558;2022-07-23T08:53:08;8.50;;;7.83;;
44456;SDS011;30159;49.316;8.558;2022-07-23T08:55:36;8.17;;;7.37;;
44456;SDS011;30159;49.316;8.558;2022-07-23T08:58:03;7.60;;;7.10;;
44456;SDS011;30159;49.316;8.558;2022-07-23T09:00:30;9.87;;;7.77;;
44456;SDS011;30159;49.316;8.558;2022-07-23T09:02:57;8.30;;;7.63;;
44456;SDS011;30159;49.316;8.558;2022-07-23T09:05:23;7.67;;;6.93;;
44456;SDS011;30159;49.316;8.558;2022-07-23T09:10:44;7.70;;;7.10;;
44456;SDS011;30159;49.316;8.558;2022-07-23T09:13:26;9.00;;;8.10;;
44456;SDS011;30159;49.316;8.558;2022-07-23T09:15:57;9.37;;;8.47;;
44456;SDS011;30159;49.316;8.558;2022-07-23T09:18:30;9.00;;;8.20;;
44456;SDS011;30159;49.316;8.558;2022-07-23T09:21:07;8.80;;;8.03;;
44456;SDS011;30159;49.316;8.558;2022-07-23T09:23:50;8.80;;;8.10;;
44456;SDS011;30159;49.316;8.558;2022-07-23T09:26:26;11.60;;;8.17;;
44456;SDS011;30159;49.316;8.558;2022-07-23T09:28:56;8.17;;;7.37;;
44456;SDS011;30159;49.316;8.558;2022-07-23T09:31:35;9.30;;;8.37;;
44456;SDS011;30159;49.316;8.558;2022-07-23T09:34:10;9.03;;;8.33;;
44456;SDS011;30159;49.316;8.558;2022-07-23T09:36:40;8.73;;;8.00;;
44456;SDS011;30159;49.316;8.558;2022-07-23T09:39:08;9.10;;;8.40;;
44456;SDS011;30159;49.316;8.558;2022-07-23T09:41:37;9.57;;;8.83;;
44456;SDS011;30159;49.316;8.558;2022-07-23T09:44:06;8.70;;;8.10;;
44456;SDS011;30159;49.316;8.558;2022-07-23T09:46:37;9.20;;;8.40;;
44456;SDS011;30159;49.316;8.558;2022-07-23T09:49:12;10.43;;;9.33;;
44456;SDS011;30159;49.316;8.558;2022-07-23T09:51:43;10.00;;;9.20;;
44456;SDS011;30159;49.316;8.558;2022-07-23T09:56:59;9.57;;;8.70;;
44456;SDS011;30159;49.316;8.558;2022-07-23T09:59:29;9.20;;;8.23;;
44456;SDS011;30159;49.316;8.558;2022-07-23T10:01:58;9.43;;;8.27;;
44456;SDS011;30159;49.316;8.558;2022-07-23T10:04:26;9.10;;;8.30;;
44456;SDS011;30159;49.316;8.558;2022-07-23T10:06:54;8.50;;;7.90;;
44456;SDS011;30159;49.316;8.558;2022-07-23T10:09:23;11.67;;;9.10;;
44456;SDS011;30159;49.316;8.558;2022-07-23T10:11:53;11.40;;;10.20;;
44456;SDS011;30159;49.316;8.558;2022-07-23T10:14:24;8.70;;;8.10;;
44456;SDS011;30159;49.316;8.558;2022-07-23T10:16:52;9.33;;;8.53;;
44456;SDS011;30159;49.316;8.558;2022-07-23T10:19:19;9.60;;;8.70;;
44456;SDS011;30159;49.316;8.558;2022-07-23T10:21:48;10.77;;;9.77;;
44456;SDS011;30159;49.316;8.558;2022-07-23T10:24:21;8.70;;;7.90;;
44456;SDS011;30159;49.316;8.558;2022-07-23T10:27:00;9.20;;;8.50;;
44456;SDS011;30159;49.316;8.558;2022-07-23T10:29:36;11.20;;;10.10;;
44456;SDS011;30159;49.316;8.558;2022-07-23T10:32:17;9.30;;;8.47;;
44456;SDS011;30159;49.316;8.558;2022-07-23T10:34:55;9.30;;;8.50;;
44456;SDS011;30159;49.316;8.558;2022-07-23T10:37:31;12.07;;;9.40;;
44456;SDS011;30159;49.316;8.558;2022-07-23T10:40:09;9.87;;;9.00;;
44456;SDS011;30159;49.316;8.558;2022-07-23T10:42:39;10.40;;;9.60;;
44456;SDS011;30159;49.316;8.558;2022-07-23T10:45:23;10.93;;;9.93;;
44456;SDS011;30159;49.316;8.558;2022-07-23T10:47:51;10.70;;;9.60;;
44456;SDS011;30159;49.316;8.558;2022-07-23T10:50:19;11.63;;;10.50;;
44456;SDS011;30159;49.316;8.558;2022-07-23T10:55:40;10.30;;;9.43;;
44456;SDS011;30159;49.316;8.558;2022-07-23T10:58:10;8.60;;;8.07;;
44456;SDS011;30159;49.316;8.558;2022-07-23T11:00:37;8.60;;;7.90;;
44456;SDS011;30159;49.316;8.558;2022-07-23T11:03:05;9.93;;;9.00;;
44456;SDS011;30159;49.316;8.558;2022-07-23T11:05:49;9.63;;;8.70;;
44456;SDS011;30159;49.316;8.558;2022-07-23T11:08:17;9.37;;;8.67;;
44456;SDS011;30159;49.316;8.558;2022-07-23T11:10:49;9.27;;;8.57;;
44456;SDS011;30159;49.316;8.558;2022-07-23T11:13:29;8.63;;;8.07;;
44456;SDS011;30159;49.316;8.558;2022-07-23T11:18:59;8.10;;;7.60;;
44456;SDS011;30159;49.316;8.558;2022-07-23T11:21:43;10.00;;;9.13;;
44456;SDS011;30159;49.316;8.558;2022-07-23T11:24:14;8.80;;;8.20;;
44456;SDS011;30159;49.316;8.558;2022-07-23T11:26:55;8.83;;;7.80;;
44456;SDS011;30159;49.316;8.558;2022-07-23T11:29:47;8.03;;;7.43;;
44456;SDS011;30159;49.316;8.558;2022-07-23T11:32:24;9.47;;;8.03;;
44456;SDS011;30159;49.316;8.558;2022-07-23T11:34:55;9.40;;;8.60;;
44456;SDS011;30159;49.316;8.558;2022-07-23T11:37:35;8.80;;;7.70;;
44456;SDS011;30159;49.316;8.558;2022-07-23T11:40:04;9.07;;;8.20;;
44456;SDS011;30159;49.316;8.558;2022-07-23T11:42:34;8.00;;;7.50;;
44456;SDS011;30159;49.316;8.558;2022-07-23T11:45:03;8.60;;;7.70;;
44456;SDS011;30159;49.316;8.558;2022-07-23T11:47:31;8.10;;;7.50;;
44456;SDS011;30159;49.316;8.558;2022-07-23T11:49:59;7.53;;;6.90;;
44456;SDS011;30159;49.316;8.558;2022-07-23T11:52:27;7.67;;;7.03;;
44456;SDS011;30159;49.316;8.558;2022-07-23T11:54:55;7.30;;;6.80;;
44456;SDS011;30159;49.316;8.558;2022-07-23T11:57:24;7.33;;;6.73;;
44456;SDS011;30159;49.316;8.558;2022-07-23T11:59:53;6.90;;;6.50;;
44456;SDS011;30159;49.316;8.558;2022-07-23T12:02:23;6.60;;;6.30;;
44456;SDS011;30159;49.316;8.558;2022-07-23T12:04:51;6.83;;;6.23;;
44456;SDS011;30159;49.316;8.558;2022-07-23T12:07:22;6.60;;;6.20;;
44456;SDS011;30159;49.316;8.558;2022-07-23T12:09:54;6.80;;;6.40;;
44456;SDS011;30159;49.316;8.558;2022-07-23T12:12:21;6.20;;;5.80;;
44456;SDS011;30159;49.316;8.558;2022-07-23T12:14:49;6.30;;;5.90;;
44456;SDS011;30159;49.316;8.558;2022-07-23T12:17:17;6.27;;;5.93;;
44456;SDS011;30159;49.316;8.558;2022-07-23T12:19:45;6.57;;;6.17;;
44456;SDS011;30159;49.316;8.558;2022-07-23T12:22:13;7.40;;;7.00;;
44456;SDS011;30159;49.316;8.558;2022-07-23T12:24:56;7.33;;;6.83;;
44456;SDS011;30159;49.316;8.558;2022-07-23T12:27:24;9.80;;;8.40;;
44456;SDS011;30159;49.316;8.558;2022-07-23T12:29:52;6.83;;;6.43;;
44456;SDS011;30159;49.316;8.558;2022-07-23T12:32:20;7.77;;;7.17;;
44456;SDS011;30159;49.316;8.558;2022-07-23T12:34:49;7.63;;;7.13;;
44456;SDS011;30159;49.316;8.558;2022-07-23T12:37:27;7.03;;;6.63;;
44456;SDS011;30159;49.316;8.558;2022-07-23T12:39:55;6.80;;;6.50;;
44456;SDS011;30159;49.316;8.558;2022-07-23T12:42:22;7.67;;;7.07;;
44456;SDS011;30159;49.316;8.558;2022-07-23T12:45:06;7.17;;;6.77;;
44456;SDS011;30159;49.316;8.558;2022-07-23T12:47:54;7.60;;;7.10;;
44456;SDS011;30159;49.316;8.558;2022-07-23T12:50:44;7.10;;;6.70;;
44456;SDS011;30159;49.316;8.558;2022-07-23T12:53:16;7.37;;;6.97;;
44456;SDS011;30159;49.316;8.558;2022-07-23T12:55:44;8.50;;;7.90;;
44456;SDS011;30159;49.316;8.558;2022-07-23T12:58:12;7.67;;;7.03;;
44456;SDS011;30159;49.316;8.558;2022-07-23T13:00:52;8.20;;;7.50;;
44456;SDS011;30159;49.316;8.558;2022-07-23T13:03:20;7.83;;;7.33;;
44456;SDS011;30159;49.316;8.558;2022-07-23T13:05:49;7.87;;;7.30;;
44456;SDS011;30159;49.316;8.558;2022-07-23T13:08:16;6.87;;;6.47;;
44456;SDS011;30159;49.316;8.558;2022-07-23T13:10:42;7.90;;;7.33;;
44456;SDS011;30159;49.316;8.558;2022-07-23T13:13:12;8.50;;;7.90;;
44456;SDS011;30159;49.316;8.558;2022-07-23T13:15:38;7.00;;;6.43;;
44456;SDS011;30159;49.316;8.558;2022-07-23T13:18:05;9.93;;;9.13;;
44456;SDS011;30159;49.316;8.558;2022-07-23T13:20:34;7.13;;;6.57;;
44456;SDS011;30159;49.316;8.558;2022-07-23T13:23:02;7.63;;;7.13;;
44456;SDS011;30159;49.316;8.558;2022-07-23T13:25:29;7.57;;;7.17;;
44456;SDS011;30159;49.316;8.558;2022-07-23T13:27:56;7.27;;;6.90;;
44456;SDS011;30159;49.316;8.558;2022-07-23T13:30:22;7.30;;;6.90;;
44456;SDS011;30159;49.316;8.558;2022-07-23T13:32:49;7.03;;;6.63;;
44456;SDS011;30159;49.316;8.558;2022-07-23T13:35:15;7.87;;;7.37;;
44456;SDS011;30159;49.316;8.558;2022-07-23T13:37:42;8.80;;;8.30;;
44456;SDS011;30159;49.316;8.558;2022-07-23T13:40:11;7.77;;;7.27;;
44456;SDS011;30159;49.316;8.558;2022-07-23T13:42:38;8.13;;;7.63;;
44456;SDS011;30159;49.316;8.558;2022-07-23T13:45:05;8.03;;;7.33;;
44456;SDS011;30159;49.316;8.558;2022-07-23T13:47:33;8.07;;;7.50;;
44456;SDS011;30159;49.316;8.558;2022-07-23T13:49:59;7.87;;;7.47;;
44456;SDS011;30159;49.316;8.558;2022-07-23T13:52:26;7.50;;;6.93;;
44456;SDS011;30159;49.316;8.558;2022-07-23T13:54:53;8.20;;;7.60;;
44456;SDS011;30159;49.316;8.558;2022-07-23T13:57:21;8.57;;;7.97;;
44456;SDS011;30159;49.316;8.558;2022-07-23T13:59:48;7.50;;;6.90;;
44456;SDS011;30159;49.316;8.558;2022-07-23T14:02:15;8.30;;;7.53;;
44456;SDS011;30159;49.316;8.558;2022-07-23T14:04:43;8.87;;;8.07;;
44456;SDS011;30159;49.316;8.558;2022-07-23T14:07:10;8.90;;;8.10;;
44456;SDS011;30159;49.316;8.558;2022-07-23T14:09:37;6.97;;;6.67;;
44456;SDS011;30159;49.316;8.558;2022-07-23T14:12:04;8.67;;;8.00;;
44456;SDS011;30159;49.316;8.558;2022-07-23T14:14:32;7.67;;;7.17;;
44456;SDS011;30159;49.316;8.558;2022-07-23T14:17:00;10.87;;;7.13;;
44456;SDS011;30159;49.316;8.558;2022-07-23T14:19:27;8.20;;;7.50;;
44456;SDS011;30159;49.316;8.558;2022-07-23T14:21:54;8.30;;;7.50;;
44456;SDS011;30159;49.316;8.558;2022-07-23T14:24:21;9.20;;;7.07;;
44456;SDS011;30159;49.316;8.558;2022-07-23T14:26:47;7.50;;;7.10;;
44456;SDS011;30159;49.316;8.558;2022-07-23T14:29:14;7.53;;;6.77;;
44456;SDS011;30159;49.316;8.558;2022-07-23T14:31:42;8.07;;;7.37;;
44456;SDS011;30159;49.316;8.558;2022-07-23T14:34:09;11.00;;;7.10;;
44456;SDS011;30159;49.316;8.558;2022-07-23T14:36:36;6.83;;;6.43;;
44456;SDS011;30159;49.316;8.558;2022-07-23T14:39:03;8.00;;;7.30;;
44456;SDS011;30159;49.316;8.558;2022-07-23T14:41:30;8.10;;;7.50;;
44456;SDS011;30159;49.316;8.558;2022-07-23T14:43:57;7.30;;;6.80;;
44456;SDS011;30159;49.316;8.558;2022-07-23T14:46:24;7.10;;;6.70;;
44456;SDS011;30159;49.316;8.558;2022-07-23T14:48:52;7.83;;;7.23;;
44456;SDS011;30159;49.316;8.558;2022-07-23T14:51:18;7.60;;;6.93;;
44456;SDS011;30159;49.316;8.558;2022-07-23T14:53:45;8.60;;;8.10;;
44456;SDS011;30159;49.316;8.558;2022-07-23T14:56:12;7.50;;;6.90;;
44456;SDS011;30159;49.316;8.558;2022-07-23T14:58:39;7.20;;;6.70;;
44456;SDS011;30159;49.316;8.558;2022-07-23T15:01:07;6.80;;;6.40;;
44456;SDS011;30159;49.316;8.558;2022-07-23T15:03:33;7.90;;;7.50;;